Airfield :
LOGIN :

Register | Disclaimer

   EN    FR    IT 

 










Legend :    VFR   Marginal VFR   IFR   Intensive IFR   Very Intensive IFR
Visi :
Ceiling :
>= 8 km
>= 3000ft
5 to 8 km
1000 to 3000 ft
1500m to 5 km
500 to 1000 ft
800 to 1500m
200 to 500 ft
< 800m
< 200 ft
Symbols :   Thunderstorms  Fog  Heavy snow  Heavy precipitations  Wind > 20 kt
SIGMETs :     Misc.  Thunderstorms  Icing  Turbulence  Mountain Waves  Volcanic Ashes






- Airport Elevation : 42 ft
- IATA code : CAL


EGEC - Campbeltown

CURRENT METAR :
  • 251550Z 27018KT 9999 VCSH FEW009 BKN041 03/02 Q0990

EXPIRED METARs :
  • 251520Z 26013KT 9999 SCT015 04/03 Q0991
  • 251450Z 27023KT 9999 SHRASN FEW011 BKN016 02/01 Q0991
  • 251420Z 26021KT 9999 FEW018 SCT031 05/02 Q0991
  • 251350Z 27016KT 9999 VCSH FEW014 BKN048 05/03 Q0991

TAF TAF EGEC
Valid from the 25 at 15:00 until the 25 at 18:00 UTC


251401Z 2515/2518 26015KT 9999 SCT020
PROB40
TEMPO 2515/2518 27018G28KT 5000 SHRASN SHRAGS BKN011CB



MET'MAP, your aeronautical weather chart ! - Copyright ORBIFLY December 2007 - Disclaimer

ORBIFLY MET'MAP TEAM :

Programming & Development : Alexandra Zaïnal
Concept & original design : Baudouin d'Aumeries
Assistance for programming : Marc-Olivier Méhu
Technical & hardware support : Manuel Goepfert

Contact : metmap@orbifly.com




SOURCES & CREDITS :

   NOAA